Time;durP1;ratioP1;P1;durP2;ratioP2;P2;SDS_P1;SDS_P2;PMS_P1;PMS_P2;Temp;Humidity;BMP_temperature;BMP_pressure;BME280_temperature;BME280_humidity;BME280_pressure;Samples;Min_cycle;Max_cycle;Signal;HPM_P1;HPM_P2
2021/10/07 00:01:52;;;;;;;8.65;3.17;;;;;;;-149.78;100.00;50244.59;4833092;29;20479;-72
2021/10/07 00:04:18;;;;;;;6.95;3.15;;;;;;;-149.78;100.00;50225.03;4809892;29;20077;-72
2021/10/07 00:06:44;;;;;;;10.43;3.97;;;;;;;-149.78;100.00;50215.25;4827236;29;20066;-72
2021/10/07 00:09:09;;;;;;;5.55;2.40;;;;;;;-149.78;100.00;50207.44;4830194;29;20038;-72
2021/10/07 00:11:36;;;;;;;5.82;3.08;;;;;;;-149.78;100.00;50244.59;4829879;29;20034;-72
2021/10/07 00:14:04;;;;;;;7.07;2.90;;;;;;;-149.78;100.00;50209.38;4835457;29;20042;-72
2021/10/07 00:16:29;;;;;;;6.80;3.20;;;;;;;-149.78;100.00;50205.47;4821022;29;20145;-72
2021/10/07 00:18:55;;;;;;;8.13;3.13;;;;;;;-149.78;100.00;50217.19;4834781;29;20038;-72
2021/10/07 00:21:21;;;;;;;6.82;3.20;;;;;;;-149.78;100.00;50174.19;4833836;29;20073;-72
2021/10/07 00:26:20;;;;;;;6.15;3.00;;;;;;;-149.78;100.00;50197.66;4842891;29;20060;-72
2021/10/07 00:28:46;;;;;;;7.53;3.45;;;;;;;-149.78;100.00;50189.81;4848513;29;20045;-72
2021/10/07 00:31:19;;;;;;;10.00;3.47;;;;;;;-149.78;100.00;50234.81;4826939;29;20428;-72
2021/10/07 00:39:14;;;;;;;5.95;3.53;;;;;;;-149.78;100.00;50217.19;4830939;29;20048;-72
2021/10/07 00:41:43;;;;;;;8.80;3.80;;;;;;;-149.78;100.00;50205.47;4844120;29;20030;-72
2021/10/07 00:44:11;;;;;;;9.40;3.70;;;;;;;-149.78;100.00;50221.13;4835165;29;20029;-72
2021/10/07 00:46:47;;;;;;;10.07;3.75;;;;;;;-149.78;100.00;50238.72;4844881;29;20118;-72
2021/10/07 00:49:13;;;;;;;9.63;3.83;;;;;;;-149.78;100.00;50225.03;4843367;29;20036;-72
2021/10/07 00:51:39;;;;;;;7.72;3.40;;;;;;;-149.78;100.00;50232.84;4842686;29;20030;-72
2021/10/07 00:54:04;;;;;;;9.32;3.92;;;;;;;-149.78;100.00;50217.19;4827646;29;20090;-72
2021/10/07 00:56:30;;;;;;;12.10;4.07;;;;;;;-149.78;100.00;50221.13;4843609;29;20045;-72
2021/10/07 00:58:57;;;;;;;12.73;3.83;;;;;;;-149.78;100.00;50236.75;4827190;29;20060;-72
2021/10/07 01:01:22;;;;;;;10.73;4.13;;;;;;;-149.78;100.00;50232.84;4845030;29;20042;-72
2021/10/07 01:03:48;;;;;;;7.43;3.63;;;;;;;-149.78;100.00;50217.19;4824666;29;20045;-72
2021/10/07 01:06:13;;;;;;;12.48;4.03;;;;;;;-149.78;100.00;50258.28;4809523;29;20041;-72
2021/10/07 01:08:39;;;;;;;9.65;3.70;;;;;;;-149.78;100.00;50236.75;4844101;29;20033;-72
2021/10/07 01:11:04;;;;;;;7.57;3.65;;;;;;;-149.78;100.00;50217.19;4842858;29;20383;-72
2021/10/07 01:13:31;;;;;;;11.05;3.92;;;;;;;-149.78;100.00;50225.03;4828118;29;20403;-72
2021/10/07 01:16:02;;;;;;;8.25;3.58;;;;;;;-149.78;100.00;50225.03;4843147;29;20049;-72
2021/10/07 01:18:28;;;;;;;10.32;3.80;;;;;;;-149.78;100.00;50246.53;4824676;29;20566;-72
2021/10/07 01:20:54;;;;;;;8.48;3.60;;;;;;;-149.78;100.00;50240.66;4844416;29;20136;-72
2021/10/07 01:23:20;;;;;;;7.80;4.30;;;;;;;-149.78;100.00;50254.34;4826959;29;20037;-72
2021/10/07 01:25:45;;;;;;;11.70;3.72;;;;;;;-149.78;100.00;50228.94;4844170;29;20073;-72
2021/10/07 01:28:18;;;;;;;12.50;3.88;;;;;;;-149.78;100.00;50240.66;4838307;29;20034;-72
2021/10/07 01:30:44;;;;;;;9.27;3.22;;;;;;;-149.78;100.00;50201.56;4838567;29;20125;-72
2021/10/07 01:33:10;;;;;;;11.70;4.15;;;;;;;-149.78;100.00;50244.59;4837576;29;20505;-72
2021/10/07 01:35:36;;;;;;;8.15;4.13;;;;;;;-149.78;100.00;50252.41;4835721;29;20061;-72
2021/10/07 01:38:04;;;;;;;9.25;3.88;;;;;;;-149.78;100.00;50268.03;4842579;29;20390;-72
2021/10/07 01:40:30;;;;;;;7.68;4.05;;;;;;;-149.78;100.00;50225.03;4843879;29;20573;-72
2021/10/07 01:42:56;;;;;;;8.63;3.58;;;;;;;-149.78;100.00;50219.16;4825832;29;20050;-72
2021/10/07 01:45:22;;;;;;;9.80;4.03;;;;;;;-149.78;100.00;50225.03;4834693;29;20038;-72
2021/10/07 01:47:47;;;;;;;8.43;3.47;;;;;;;-149.78;100.00;50217.19;4811587;29;20050;-72
2021/10/07 01:50:15;;;;;;;13.15;4.00;;;;;;;-149.78;100.00;50221.13;4839845;29;20049;-72
2021/10/07 01:52:42;;;;;;;9.23;4.13;;;;;;;-149.78;100.00;50207.44;4828378;29;20046;-72
2021/10/07 01:55:09;;;;;;;12.70;4.03;;;;;;;-149.78;100.00;50236.75;4841308;29;20037;-72
2021/10/07 01:57:36;;;;;;;9.18;3.92;;;;;;;-149.78;100.00;50217.19;4842196;29;20038;-72
2021/10/07 02:00:03;;;;;;;11.30;4.35;;;;;;;-149.78;100.00;50225.03;4827801;29;20500;-72
2021/10/07 02:02:29;;;;;;;12.05;4.55;;;;;;;-149.78;100.00;50228.94;4839717;29;20125;-72
2021/10/07 02:04:54;;;;;;;14.13;5.07;;;;;;;-149.78;100.00;50228.94;4843964;29;20129;-72
2021/10/07 02:07:20;;;;;;;19.00;4.78;;;;;;;-149.78;100.00;50217.19;4838452;29;20483;-72
2021/10/07 02:09:49;;;;;;;14.60;5.72;;;;;;;-149.78;100.00;50225.03;4832778;29;20044;-72
2021/10/07 02:12:14;;;;;;;17.08;5.07;;;;;;;-149.78;100.00;50201.56;4822758;29;20034;-72
2021/10/07 02:14:40;;;;;;;11.73;5.00;;;;;;;-149.78;100.00;50240.66;4841632;29;20049;-72
2021/10/07 02:17:06;;;;;;;14.98;5.18;;;;;;;-149.78;100.00;50250.44;4818743;29;20041;-72
2021/10/07 02:19:32;;;;;;;13.23;5.07;;;;;;;-149.78;100.00;50244.59;4843172;29;20052;-72
2021/10/07 02:21:58;;;;;;;11.93;4.90;;;;;;;-149.78;100.00;50240.66;4842628;29;20045;-72
2021/10/07 02:24:25;;;;;;;11.30;6.18;;;;;;;-149.78;100.00;50228.94;4841873;29;20042;-72
2021/10/07 02:26:51;;;;;;;9.70;4.82;;;;;;;-149.78;100.00;50213.28;4842931;29;20062;-72
2021/10/07 02:29:18;;;;;;;12.55;5.13;;;;;;;-149.78;100.00;50228.94;4831968;29;20069;-72
2021/10/07 02:31:43;;;;;;;15.32;4.38;;;;;;;-149.78;100.00;50236.75;4843019;29;20170;-72
2021/10/07 02:34:09;;;;;;;10.75;4.45;;;;;;;-149.78;100.00;50185.91;4829975;29;20395;-72
2021/10/07 02:36:35;;;;;;;13.52;4.75;;;;;;;-149.78;100.00;50226.97;4842372;29;20042;-72
2021/10/07 02:39:00;;;;;;;10.05;4.40;;;;;;;-149.78;100.00;50228.94;4827127;29;20087;-72
2021/10/07 02:41:26;;;;;;;12.00;4.25;;;;;;;-149.78;100.00;50238.72;4841500;29;20038;-72
2021/10/07 02:43:52;;;;;;;12.02;4.35;;;;;;;-149.78;100.00;50236.75;4850537;29;20546;-72
2021/10/07 02:46:18;;;;;;;13.23;5.03;;;;;;;-149.78;100.00;50232.84;4828103;29;20046;-72
2021/10/07 02:48:44;;;;;;;9.73;4.38;;;;;;;-149.78;100.00;50209.38;4843173;29;20033;-72
2021/10/07 02:51:10;;;;;;;13.35;4.57;;;;;;;-149.78;100.00;50260.22;4842611;29;20041;-72
2021/10/07 02:53:37;;;;;;;8.75;4.03;;;;;;;-149.78;100.00;50252.41;4846357;29;20048;-72
2021/10/07 02:56:04;;;;;;;12.73;4.10;;;;;;;-149.78;100.00;50242.63;4822102;29;20034;-72
2021/10/07 02:58:30;;;;;;;8.48;3.95;;;;;;;-149.78;100.00;50225.03;4822936;29;20107;-72
2021/10/07 03:00:56;;;;;;;12.43;3.97;;;;;;;-149.78;100.00;50217.19;4828371;29;20046;-72
2021/10/07 03:03:21;;;;;;;5.35;3.63;;;;;;;-149.78;100.00;50228.94;4840566;29;20062;-72
2021/10/07 03:05:47;;;;;;;8.40;4.55;;;;;;;-149.78;100.00;50250.44;4842577;29;20335;-72
2021/10/07 03:08:13;;;;;;;11.55;4.22;;;;;;;-149.78;100.00;50225.03;4842385;29;20442;-72
2021/10/07 03:10:38;;;;;;;10.75;4.68;;;;;;;-149.78;100.00;50225.03;4851322;29;20041;-72
2021/10/07 03:13:04;;;;;;;9.57;4.00;;;;;;;-149.78;100.00;50213.28;4841424;29;20033;-71
2021/10/07 03:15:29;;;;;;;7.10;3.75;;;;;;;-149.78;100.00;50219.16;4841793;29;20064;-72
2021/10/07 03:17:55;;;;;;;11.98;4.60;;;;;;;-149.78;100.00;50225.03;4826116;29;20042;-72
2021/10/07 03:20:21;;;;;;;16.35;5.13;;;;;;;-149.78;100.00;50228.94;4824847;29;20053;-72
2021/10/07 03:22:46;;;;;;;9.80;4.95;;;;;;;-149.78;100.00;50230.88;4823230;29;20037;-72
2021/10/07 03:25:12;;;;;;;8.20;4.60;;;;;;;-149.78;100.00;50225.03;4841665;29;20042;-72
2021/10/07 03:27:38;;;;;;;9.73;4.93;;;;;;;-149.78;100.00;50256.31;4852198;29;20064;-72
2021/10/07 03:30:06;;;;;;;9.45;4.90;;;;;;;-149.78;100.00;50236.75;4841943;29;20482;-72
2021/10/07 03:32:31;;;;;;;11.52;4.90;;;;;;;-149.78;100.00;50240.66;4840143;29;20045;-72
2021/10/07 03:34:57;;;;;;;10.05;5.15;;;;;;;-149.78;100.00;50221.13;4841065;29;20053;-72
2021/10/07 03:37:23;;;;;;;13.90;4.57;;;;;;;-149.78;100.00;50271.97;4837066;29;20570;-72
2021/10/07 03:39:49;;;;;;;10.75;5.00;;;;;;;-149.78;100.00;50197.66;4831309;29;20033;-72
2021/10/07 03:42:15;;;;;;;9.05;4.90;;;;;;;-149.78;100.00;50217.19;4841152;29;20045;-72
2021/10/07 03:44:41;;;;;;;10.93;5.00;;;;;;;-149.78;100.00;50240.66;4842309;29;20041;-72
2021/10/07 03:47:07;;;;;;;11.75;5.28;;;;;;;-149.78;100.00;50244.59;4842419;29;20038;-72
2021/10/07 03:49:33;;;;;;;12.55;4.88;;;;;;;-149.78;100.00;50234.81;4841763;29;20130;-72
2021/10/07 03:51:59;;;;;;;12.65;5.53;;;;;;;-149.78;100.00;50217.19;4841486;29;20109;-71
2021/10/07 03:54:25;;;;;;;13.38;5.57;;;;;;;-149.78;100.00;50201.56;4824786;29;20041;-71
2021/10/07 03:56:50;;;;;;;11.10;5.70;;;;;;;-149.78;100.00;50221.13;4839794;29;20121;-71
2021/10/07 03:59:17;;;;;;;12.05;6.05;;;;;;;-149.78;100.00;50225.03;4841476;29;20493;-72
2021/10/07 04:01:43;;;;;;;15.23;7.38;;;;;;;-149.78;100.00;50225.03;4849469;29;20129;-71
2021/10/07 04:04:08;;;;;;;13.02;6.57;;;;;;;-149.78;100.00;50262.19;4842585;29;20046;-72
2021/10/07 04:06:34;;;;;;;15.43;7.28;;;;;;;-149.78;100.00;50213.28;4841676;29;20055;-73
2021/10/07 04:09:00;;;;;;;15.45;6.93;;;;;;;-149.78;100.00;50236.75;4841473;29;20042;-73
2021/10/07 04:11:26;;;;;;;15.20;7.60;;;;;;;-149.78;100.00;50225.03;4840947;29;20038;-71
2021/10/07 04:13:52;;;;;;;14.85;7.40;;;;;;;-149.78;100.00;50250.44;4840681;29;20065;-71
2021/10/07 04:16:17;;;;;;;16.52;7.78;;;;;;;-149.78;100.00;50207.44;4841916;29;20061;-71
2021/10/07 04:18:44;;;;;;;15.52;7.20;;;;;;;-149.78;100.00;50252.41;4825148;29;20120;-72
2021/10/07 04:21:10;;;;;;;18.13;7.72;;;;;;;-149.78;100.00;50228.94;4842018;29;20034;-72
2021/10/07 04:23:37;;;;;;;14.15;7.25;;;;;;;-149.78;100.00;50225.03;4840654;29;20041;-73
2021/10/07 04:26:03;;;;;;;13.38;7.68;;;;;;;-149.78;100.00;50228.94;4825843;29;20487;-73
2021/10/07 04:28:28;;;;;;;17.38;7.28;;;;;;;-149.78;100.00;50228.94;4840300;29;20040;-72
2021/10/07 04:30:54;;;;;;;13.30;7.15;;;;;;;-149.78;100.00;50217.19;4839281;29;20038;-72
2021/10/07 04:33:19;;;;;;;12.82;6.60;;;;;;;-149.78;100.00;50252.41;4842114;29;20042;-72
2021/10/07 04:35:45;;;;;;;17.17;7.45;;;;;;;-149.78;100.00;50264.13;4841523;29;20478;-72
2021/10/07 04:38:11;;;;;;;18.75;8.13;;;;;;;-149.78;100.00;50252.41;4842074;29;20474;-72
2021/10/07 04:40:36;;;;;;;13.15;7.47;;;;;;;-149.78;100.00;50271.97;4824593;29;20038;-72
2021/10/07 04:43:03;;;;;;;18.75;8.13;;;;;;;-149.78;100.00;50240.66;4839797;29;20538;-72
2021/10/07 04:45:29;;;;;;;15.68;7.07;;;;;;;-149.78;100.00;50260.22;4841973;29;20501;-72
2021/10/07 04:47:54;;;;;;;17.48;7.40;;;;;;;-149.78;100.00;50225.03;4839731;29;20038;-73
2021/10/07 04:50:20;;;;;;;22.67;8.38;;;;;;;-149.78;100.00;50240.66;4840778;29;20122;-72
2021/10/07 04:52:46;;;;;;;14.45;7.60;;;;;;;-149.78;100.00;50268.03;4840682;29;20038;-72
2021/10/07 04:55:12;;;;;;;20.85;8.48;;;;;;;-149.78;100.00;50264.13;4821474;29;20034;-73
2021/10/07 04:57:38;;;;;;;17.33;9.18;;;;;;;-149.78;100.00;50244.59;4828823;29;20088;-72
2021/10/07 05:00:08;;;;;;;12.90;7.78;;;;;;;-149.78;100.00;50248.50;4826823;29;20482;-73
2021/10/07 05:02:38;;;;;;;19.15;8.02;;;;;;;-149.78;100.00;50252.41;4826154;29;20580;-73
2021/10/07 05:05:09;;;;;;;16.65;7.88;;;;;;;-149.78;100.00;50268.03;4828051;29;20088;-73
2021/10/07 05:07:34;;;;;;;18.10;8.52;;;;;;;-149.78;100.00;50215.25;4813941;29;20035;-72
2021/10/07 05:10:00;;;;;;;19.45;8.68;;;;;;;-149.78;100.00;50232.84;4831434;29;20043;-72
2021/10/07 05:12:26;;;;;;;15.93;8.75;;;;;;;-149.78;100.00;50211.34;4842615;29;20038;-72
2021/10/07 05:14:51;;;;;;;19.45;9.35;;;;;;;-149.78;100.00;50256.31;4843962;29;20037;-72
2021/10/07 05:17:17;;;;;;;18.15;9.50;;;;;;;-149.78;100.00;50207.44;4828351;29;20036;-71
2021/10/07 05:19:43;;;;;;;17.45;8.82;;;;;;;-149.78;100.00;50258.28;4844866;29;20098;-71
2021/10/07 05:22:08;;;;;;;16.33;8.80;;;;;;;-149.78;100.00;50252.41;4829497;29;20102;-73
2021/10/07 05:24:34;;;;;;;17.60;9.25;;;;;;;-149.78;100.00;50217.19;4823934;29;20486;-73
2021/10/07 05:27:00;;;;;;;19.33;9.65;;;;;;;-149.78;100.00;50236.75;4836057;29;20045;-72
2021/10/07 05:29:25;;;;;;;19.85;9.20;;;;;;;-149.78;100.00;50252.41;4818442;29;20050;-72
2021/10/07 05:31:51;;;;;;;18.90;8.90;;;;;;;-149.78;100.00;50252.41;4841101;29;20094;-73
2021/10/07 05:34:17;;;;;;;20.52;9.05;;;;;;;-149.78;100.00;50248.50;4843949;29;20041;-73
2021/10/07 05:36:43;;;;;;;21.90;9.73;;;;;;;-149.78;100.00;50205.47;4833512;29;20033;-73
2021/10/07 05:39:09;;;;;;;20.30;9.80;;;;;;;-149.78;100.00;50287.59;4829850;29;20056;-73
2021/10/07 05:41:35;;;;;;;23.52;10.05;;;;;;;-149.78;100.00;50240.66;4842826;29;20046;-73
2021/10/07 05:44:00;;;;;;;21.95;9.73;;;;;;;-149.78;100.00;50279.78;4841360;29;20542;-73
2021/10/07 05:46:26;;;;;;;21.60;10.20;;;;;;;-149.78;100.00;50248.50;4842966;29;20087;-72
2021/10/07 05:48:52;;;;;;;24.55;9.80;;;;;;;-149.78;100.00;50271.97;4844161;29;20046;-73
2021/10/07 05:51:18;;;;;;;21.65;10.25;;;;;;;-149.78;100.00;50228.94;4842128;29;20038;-73
2021/10/07 05:53:45;;;;;;;21.35;9.57;;;;;;;-149.78;100.00;50283.69;4811610;29;20063;-73
2021/10/07 05:56:11;;;;;;;22.90;11.02;;;;;;;-149.78;100.00;50281.75;4842898;29;20403;-74
2021/10/07 05:58:36;;;;;;;21.80;9.75;;;;;;;-149.78;100.00;50266.09;4843423;29;20046;-73
2021/10/07 06:01:02;;;;;;;23.48;9.82;;;;;;;-149.78;100.00;50270.00;4843479;29;20133;-73
2021/10/07 06:03:28;;;;;;;22.02;10.95;;;;;;;-149.78;100.00;50232.84;4823881;29;20050;-70
2021/10/07 06:05:54;;;;;;;21.95;10.52;;;;;;;-149.78;100.00;50256.31;4820746;29;20178;-71
2021/10/07 06:08:20;;;;;;;22.77;10.05;;;;;;;-149.78;100.00;50264.13;4813732;29;20038;-71
2021/10/07 06:10:47;;;;;;;24.15;9.88;;;;;;;-149.78;100.00;50275.88;4834155;29;20033;-71
2021/10/07 06:13:12;;;;;;;26.45;10.38;;;;;;;-149.78;100.00;50303.25;4834295;29;20046;-71
2021/10/07 06:15:39;;;;;;;24.92;10.45;;;;;;;-149.78;100.00;50244.59;4835089;29;20042;-71
2021/10/07 06:18:05;;;;;;;21.83;10.10;;;;;;;-149.78;100.00;50221.13;4828236;29;20133;-72
2021/10/07 06:20:33;;;;;;;23.13;10.05;;;;;;;-149.78;100.00;50266.09;4814981;29;20045;-72
2021/10/07 06:23:01;;;;;;;22.85;10.52;;;;;;;-149.78;100.00;50252.41;4828765;29;20039;-72
2021/10/07 06:25:27;;;;;;;23.17;9.35;;;;;;;-149.78;100.00;50283.69;4815957;29;20062;-71
2021/10/07 06:27:53;;;;;;;28.63;10.70;;;;;;;-149.78;100.00;50228.94;4833288;29;20038;-71
2021/10/07 06:30:20;;;;;;;25.48;10.55;;;;;;;-149.78;100.00;50258.28;4829200;29;20042;-71
2021/10/07 06:32:47;;;;;;;22.48;10.63;;;;;;;-149.78;100.00;50260.22;4832369;29;20141;-71
2021/10/07 06:35:13;;;;;;;25.95;10.25;;;;;;;-149.78;100.00;50275.88;4821063;29;20076;-70
2021/10/07 06:37:39;;;;;;;30.52;11.35;;;;;;;-149.78;100.00;50228.94;4823006;29;20520;-70
2021/10/07 06:40:07;;;;;;;30.20;11.35;;;;;;;-149.78;100.00;50252.41;4832821;29;20133;-70
2021/10/07 06:42:33;;;;;;;24.38;10.85;;;;;;;-149.78;100.00;50252.41;4836177;29;20099;-71
2021/10/07 06:44:59;;;;;;;25.88;10.65;;;;;;;-149.78;100.00;50266.09;4823250;29;20038;-71
2021/10/07 06:47:25;;;;;;;26.00;11.30;;;;;;;-149.78;100.00;50279.78;4800023;29;20049;-71
2021/10/07 06:49:52;;;;;;;25.48;11.32;;;;;;;-149.78;100.00;50223.06;4827723;29;20085;-71
2021/10/07 06:52:17;;;;;;;24.83;9.32;;;;;;;-149.78;100.00;50264.13;4827240;29;20042;-71
2021/10/07 06:54:43;;;;;;;28.73;9.90;;;;;;;-149.78;100.00;50264.13;4827797;29;20183;-70
2021/10/07 06:57:09;;;;;;;23.90;9.95;;;;;;;-149.78;100.00;50256.31;4812867;29;20380;-72
2021/10/07 06:59:35;;;;;;;22.88;9.70;;;;;;;-149.78;100.00;50225.03;4831292;29;20039;-71
2021/10/07 07:02:01;;;;;;;19.00;8.73;;;;;;;-149.78;100.00;50213.28;4835644;29;20049;-71
2021/10/07 07:04:26;;;;;;;18.95;9.52;;;;;;;-149.78;100.00;50225.03;4839138;29;20447;-72
2021/10/07 07:06:54;;;;;;;18.75;8.18;;;;;;;-149.78;100.00;50242.63;4834054;29;20045;-74
2021/10/07 07:09:20;;;;;;;16.58;7.88;;;;;;;-149.78;100.00;50225.03;4817606;29;20062;-73
2021/10/07 07:11:46;;;;;;;13.48;6.93;;;;;;;-149.78;100.00;50238.72;4834319;29;20113;-72
2021/10/07 07:14:12;;;;;;;20.30;8.65;;;;;;;-149.78;100.00;50182.00;4824629;29;20125;-73
2021/10/07 07:16:38;;;;;;;20.52;7.80;;;;;;;-149.78;100.00;50248.50;4829041;29;20492;-73
2021/10/07 07:19:04;;;;;;;17.83;7.53;;;;;;;-149.78;100.00;50248.50;4830895;29;20068;-73
2021/10/07 07:21:32;;;;;;;18.35;7.60;;;;;;;-149.78;100.00;50238.72;4837844;29;20041;-73
2021/10/07 07:24:00;;;;;;;19.50;7.13;;;;;;;-149.78;100.00;50213.28;4819247;29;20061;-73
2021/10/07 07:26:29;;;;;;;19.52;7.75;;;;;;;-149.78;100.00;50201.56;4812713;29;20057;-73
2021/10/07 07:28:54;;;;;;;14.90;7.32;;;;;;;-149.78;100.00;50221.13;4836709;29;20432;-73
2021/10/07 07:31:21;;;;;;;12.73;6.53;;;;;;;-149.78;100.00;50209.38;4832397;29;20126;-73
2021/10/07 07:33:50;;;;;;;14.80;7.35;;;;;;;-149.78;100.00;50248.50;4834215;29;20034;-73
2021/10/07 07:36:24;;;;;;;17.25;6.95;;;;;;;-149.78;100.00;50244.59;4818593;29;20754;-73
2021/10/07 07:38:50;;;;;;;16.02;6.57;;;;;;;-149.78;100.00;50228.94;4820062;29;20054;-73
2021/10/07 07:41:18;;;;;;;21.30;6.88;;;;;;;-149.78;100.00;50223.06;4820063;29;20066;-73
2021/10/07 07:43:44;;;;;;;14.52;6.25;;;;;;;-149.78;100.00;50207.44;4817041;29;20034;-73
2021/10/07 07:46:11;;;;;;;13.80;6.10;;;;;;;-149.78;100.00;50232.84;4816855;29;20042;-72
2021/10/07 07:48:36;;;;;;;11.95;5.80;;;;;;;-149.78;100.00;50211.34;4818702;29;20035;-72
2021/10/07 07:51:03;;;;;;;12.48;6.05;;;;;;;-149.78;100.00;50236.75;4820444;29;20041;-72
2021/10/07 07:53:29;;;;;;;11.57;5.97;;;;;;;-149.78;100.00;50215.25;4822230;29;20117;-72
2021/10/07 07:55:55;;;;;;;12.00;5.95;;;;;;;-149.78;100.00;50232.84;4821830;29;20153;-73
2021/10/07 07:58:21;;;;;;;9.15;4.88;;;;;;;-149.78;100.00;50242.63;4823213;29;20124;-73
2021/10/07 08:00:48;;;;;;;10.25;5.13;;;;;;;-149.78;100.00;50250.44;4824076;29;20399;-73
2021/10/07 08:03:14;;;;;;;14.88;5.47;;;;;;;-149.78;100.00;50187.88;4820518;29;20406;-74
2021/10/07 08:05:41;;;;;;;11.25;5.28;;;;;;;-149.78;100.00;50219.16;4811116;29;20409;-74
2021/10/07 08:08:07;;;;;;;11.15;5.32;;;;;;;-149.78;100.00;50215.25;4812496;29;20045;-73
2021/10/07 08:10:32;;;;;;;8.98;4.50;;;;;;;-149.78;100.00;50148.75;4812175;29;20459;-74
2021/10/07 08:13:00;;;;;;;9.90;4.90;;;;;;;-149.78;100.00;50189.81;4806805;29;20031;-74
2021/10/07 08:15:26;;;;;;;9.80;4.70;;;;;;;-149.78;100.00;50215.25;4820364;29;20117;-74
2021/10/07 08:17:52;;;;;;;8.27;4.22;;;;;;;-149.78;100.00;50211.34;4825505;29;20046;-74
2021/10/07 08:20:18;;;;;;;10.50;5.28;;;;;;;-149.78;100.00;50201.56;4824139;29;20042;-73
2021/10/07 08:22:47;;;;;;;10.77;5.00;;;;;;;-149.78;100.00;50189.81;4823415;29;20472;-74
2021/10/07 08:25:14;;;;;;;9.70;4.78;;;;;;;-149.78;100.00;50205.47;4818037;29;20045;-73
2021/10/07 08:27:40;;;;;;;11.45;5.15;;;;;;;-149.78;100.00;50223.06;4819024;29;20395;-73
2021/10/07 08:30:08;;;;;;;9.90;5.22;;;;;;;-149.78;100.00;50180.03;4817448;29;20035;-74
2021/10/07 08:32:34;;;;;;;7.63;4.55;;;;;;;-149.78;100.00;50131.16;4819178;29;20038;-74
2021/10/07 08:34:59;;;;;;;7.95;4.63;;;;;;;-149.78;100.00;50103.78;4823036;29;20473;-74
2021/10/07 08:37:27;;;;;;;6.65;4.20;;;;;;;-149.78;100.00;50047.06;4822854;29;20570;-74
2021/10/07 08:39:53;;;;;;;8.07;4.15;;;;;;;-149.78;100.00;50027.50;4830970;29;20090;-74
2021/10/07 08:42:20;;;;;;;7.93;3.28;;;;;;;-149.78;100.00;50007.94;4832541;29;20133;-73
2021/10/07 08:44:46;;;;;;;5.65;3.78;;;;;;;-149.78;100.00;49966.88;4837848;29;20034;-75
2021/10/07 08:47:13;;;;;;;4.93;3.13;;;;;;;-149.78;87.16;49970.78;4844346;29;20064;-74
2021/10/07 08:49:42;;;;;;;5.82;3.08;;;;;;;-149.78;77.03;49970.78;4843883;29;20162;-73
2021/10/07 08:52:08;;;;;;;5.18;3.13;;;;;;;-149.78;74.06;49990.34;4843390;29;20033;-73
2021/10/07 08:54:34;;;;;;;6.75;4.60;;;;;;;-149.78;71.91;49966.88;4833425;29;20052;-73
2021/10/07 08:57:01;;;;;;;9.32;3.78;;;;;;;-149.78;70.57;49955.16;4845266;29;20063;-74
2021/10/07 08:59:28;;;;;;;6.30;3.63;;;;;;;-149.78;66.55;49955.16;4827416;29;20483;-73
2021/10/07 09:01:58;;;;;;;4.68;3.15;;;;;;;-149.78;62.79;49955.16;4844082;29;20516;-74
2021/10/07 09:04:25;;;;;;;6.15;3.38;;;;;;;-149.78;63.82;49964.94;4844561;29;20038;-74
2021/10/07 09:06:53;;;;;;;6.13;3.17;;;;;;;-149.78;62.53;49982.53;4844282;29;20778;-74
2021/10/07 09:09:20;;;;;;;7.10;3.60;;;;;;;-149.78;64.22;49939.50;4844175;29;20037;-73
2021/10/07 09:11:51;;;;;;;5.47;3.35;;;;;;;-149.78;62.74;49947.34;4836925;29;20030;-73
2021/10/07 09:14:18;;;;;;;5.25;3.17;;;;;;;-149.78;62.51;49933.66;4820119;29;20427;-73
2021/10/07 09:16:47;;;;;;;7.53;3.30;;;;;;;-149.78;59.95;49947.34;4833000;29;20038;-74
2021/10/07 09:19:17;;;;;;;4.35;3.20;;;;;;;-149.78;61.04;49951.25;4842899;29;20030;-73
2021/10/07 09:21:44;;;;;;;4.75;3.13;;;;;;;-149.78;62.81;49980.56;4844800;29;20030;-73
2021/10/07 09:24:34;;;;;;;7.47;3.47;;;;;;;-149.78;65.60;49947.34;4834283;29;20122;-74
2021/10/07 09:27:09;;;;;;;5.97;3.00;;;;;;;-149.78;68.91;50013.81;4842795;29;20073;-73
2021/10/07 09:29:43;;;;;;;5.47;3.08;;;;;;;-149.78;68.01;49982.53;4840461;29;20030;-73
2021/10/07 09:32:11;;;;;;;6.97;3.05;;;;;;;-149.78;64.88;49962.97;4835452;29;20024;-73
2021/10/07 09:34:43;;;;;;;4.93;2.83;;;;;;;-149.78;61.72;49935.59;4838931;29;20045;-73
2021/10/07 09:37:27;;;;;;;4.90;3.28;;;;;;;-149.78;60.05;49955.16;4841885;29;20046;-74
2021/10/07 09:40:04;;;;;;;4.88;2.92;;;;;;;-149.78;58.27;49912.13;4841395;29;20036;-73
2021/10/07 09:42:34;;;;;;;5.35;2.60;;;;;;;-149.78;56.57;49900.41;4838905;29;20038;-73
2021/10/07 09:45:00;;;;;;;2.47;2.00;;;;;;;-149.78;54.98;49908.22;4842510;29;20494;-74
2021/10/07 09:47:31;;;;;;;3.05;2.40;;;;;;;-149.78;56.32;49923.88;4843518;29;20086;-74
2021/10/07 09:50:26;;;;;;;2.65;2.13;;;;;;;-149.78;55.46;49916.03;4841207;29;20034;-72
2021/10/07 09:52:59;;;;;;;3.17;2.28;;;;;;;-149.78;54.14;49902.34;4840690;29;20038;-74
2021/10/07 09:55:28;;;;;;;3.17;2.15;;;;;;;-149.78;54.82;49908.22;4840968;29;20038;-74
2021/10/07 09:58:11;;;;;;;2.78;2.05;;;;;;;-149.78;53.15;49892.56;4841494;29;20030;-73
2021/10/07 10:00:39;;;;;;;4.13;1.80;;;;;;;-149.78;54.39;49884.75;4843920;29;20113;-73
2021/10/07 10:03:06;;;;;;;3.83;1.90;;;;;;;-149.78;54.78;49908.22;4841427;29;20167;-74
2021/10/07 10:05:34;;;;;;;2.97;1.77;;;;;;;-149.78;54.20;49908.22;4834082;29;20048;-74
2021/10/07 10:08:00;;;;;;;4.70;2.42;;;;;;;-149.78;56.50;49904.31;4832048;29;20060;-74
2021/10/07 10:10:26;;;;;;;1.75;1.55;;;;;;;-149.78;60.95;49982.53;4841667;29;20034;-73
2021/10/07 10:12:52;;;;;;;2.88;2.10;;;;;;;-149.78;65.08;49986.44;4842629;29;20046;-74
2021/10/07 10:15:21;;;;;;;1.77;1.50;;;;;;;-149.78;67.89;50013.81;4830351;29;22298;-74
2021/10/07 10:17:49;;;;;;;1.73;1.60;;;;;;;-149.78;75.62;50039.25;4843903;29;20042;-73
2021/10/07 10:20:23;;;;;;;1.83;1.55;;;;;;;-149.78;93.94;50088.13;4843109;29;20042;-74
2021/10/07 10:22:58;;;;;;;2.83;1.80;;;;;;;-149.78;100.00;50092.03;4842884;29;20037;-73
2021/10/07 10:25:26;;;;;;;3.13;1.80;;;;;;;-149.78;100.00;50119.41;4838213;29;20042;-73
2021/10/07 10:27:59;;;;;;;3.75;2.38;;;;;;;-149.78;100.00;50123.34;4833037;29;20045;-74
2021/10/07 10:30:39;;;;;;;3.92;2.38;;;;;;;-149.78;100.00;50162.44;4832334;29;20033;-74
2021/10/07 10:33:06;;;;;;;5.85;3.22;;;;;;;-149.78;100.00;50170.25;4834151;29;20482;-73
2021/10/07 10:35:39;;;;;;;5.45;3.50;;;;;;;-149.78;100.00;50135.06;4834716;29;20053;-74
2021/10/07 10:38:11;;;;;;;7.93;3.67;;;;;;;-149.78;100.00;50127.25;4841566;29;20030;-73
2021/10/07 10:40:38;;;;;;;9.63;3.58;;;;;;;-149.78;100.00;50148.75;4837249;29;20041;-74
2021/10/07 10:43:20;;;;;;;9.35;3.30;;;;;;;-149.78;100.00;50158.53;4841341;29;20558;-74
2021/10/07 10:46:10;;;;;;;7.78;3.58;;;;;;;-149.78;100.00;50178.09;4842982;29;20034;-74
2021/10/07 10:48:41;;;;;;;8.10;3.65;;;;;;;-149.78;100.00;50158.53;4832268;29;20069;-74
2021/10/07 10:51:15;;;;;;;6.78;3.22;;;;;;;-149.78;100.00;50125.28;4838384;29;20030;-74
2021/10/07 10:54:08;;;;;;;7.40;3.30;;;;;;;-149.78;100.00;50131.16;4840597;29;20029;-74
2021/10/07 10:56:55;;;;;;;5.15;2.95;;;;;;;-149.78;100.00;50082.25;4836596;29;20435;-74
2021/10/07 10:59:23;;;;;;;6.95;3.15;;;;;;;-149.78;100.00;50062.72;4842815;29;20496;-74
2021/10/07 11:02:16;;;;;;;6.13;3.47;;;;;;;-149.78;96.41;50084.22;4842957;29;20074;-74
2021/10/07 11:04:44;;;;;;;5.68;3.20;;;;;;;-149.78;90.35;50025.56;4836758;29;20033;-74
2021/10/07 11:07:16;;;;;;;3.83;2.50;;;;;;;-149.78;78.87;50021.63;4842017;29;20653;-74
2021/10/07 11:09:59;;;;;;;5.57;2.38;;;;;;;-149.78;72.96;50009.91;4840933;29;20041;-74
2021/10/07 11:12:29;;;;;;;3.65;2.38;;;;;;;-149.78;70.49;49994.25;4825288;29;20030;-74
2021/10/07 11:14:55;;;;;;;4.82;2.45;;;;;;;-149.78;67.89;50002.09;4835209;29;20490;-74